sensor_id;sensor_type;location;lat;lon;timestamp;temperature;humidity
25342;DHT22;13298;48.792;9.154;2022-11-23T00:01:16;3.30;99.90
25342;DHT22;13298;48.792;9.154;2022-11-23T00:03:51;3.20;99.90
25342;DHT22;13298;48.792;9.154;2022-11-23T00:06:19;3.20;99.90
25342;DHT22;13298;48.792;9.154;2022-11-23T00:08:46;3.20;99.90
25342;DHT22;13298;48.792;9.154;2022-11-23T00:11:12;3.20;99.90
25342;DHT22;13298;48.792;9.154;2022-11-23T00:13:38;3.20;99.90
25342;DHT22;13298;48.792;9.154;2022-11-23T00:16:11;3.20;99.90
25342;DHT22;13298;48.792;9.154;2022-11-23T00:18:42;3.20;99.90
25342;DHT22;13298;48.792;9.154;2022-11-23T00:21:14;3.20;99.90
25342;DHT22;13298;48.792;9.154;2022-11-23T00:23:40;3.30;99.90
25342;DHT22;13298;48.792;9.154;2022-11-23T00:26:06;3.30;99.90
25342;DHT22;13298;48.792;9.154;2022-11-23T00:28:32;3.30;99.90
25342;DHT22;13298;48.792;9.154;2022-11-23T00:30:59;3.30;99.90
25342;DHT22;13298;48.792;9.154;2022-11-23T00:33:25;3.30;99.90
25342;DHT22;13298;48.792;9.154;2022-11-23T00:36:06;3.30;99.90
25342;DHT22;13298;48.792;9.154;2022-11-23T00:38:37;3.40;99.90
25342;DHT22;13298;48.792;9.154;2022-11-23T00:41:09;3.50;99.90
25342;DHT22;13298;48.792;9.154;2022-11-23T00:43:36;3.60;99.90
25342;DHT22;13298;48.792;9.154;2022-11-23T00:46:09;3.70;99.90
25342;DHT22;13298;48.792;9.154;2022-11-23T00:48:35;3.90;99.90
25342;DHT22;13298;48.792;9.154;2022-11-23T00:51:02;4.00;99.90
25342;DHT22;13298;48.792;9.154;2022-11-23T00:53:29;4.10;99.90
25342;DHT22;13298;48.792;9.154;2022-11-23T00:55:55;4.30;99.90
25342;DHT22;13298;48.792;9.154;2022-11-23T00:58:22;4.30;99.90
25342;DHT22;13298;48.792;9.154;2022-11-23T01:00:49;4.40;99.90
25342;DHT22;13298;48.792;9.154;2022-11-23T01:03:15;4.50;99.90
25342;DHT22;13298;48.792;9.154;2022-11-23T01:05:41;4.50;99.90
25342;DHT22;13298;48.792;9.154;2022-11-23T01:08:07;4.50;99.90
25342;DHT22;13298;48.792;9.154;2022-11-23T01:10:32;4.60;99.90
25342;DHT22;13298;48.792;9.154;2022-11-23T01:12:59;4.60;99.90
25342;DHT22;13298;48.792;9.154;2022-11-23T01:15:25;4.50;99.90
25342;DHT22;13298;48.792;9.154;2022-11-23T01:17:51;4.50;99.90
25342;DHT22;13298;48.792;9.154;2022-11-23T01:20:17;4.40;99.90
25342;DHT22;13298;48.792;9.154;2022-11-23T01:22:42;4.30;99.90
25342;DHT22;13298;48.792;9.154;2022-11-23T01:25:08;4.20;99.90
25342;DHT22;13298;48.792;9.154;2022-11-23T01:27:34;4.10;99.90
25342;DHT22;13298;48.792;9.154;2022-11-23T01:30:00;4.00;99.90
25342;DHT22;13298;48.792;9.154;2022-11-23T01:32:25;4.00;99.90
25342;DHT22;13298;48.792;9.154;2022-11-23T01:34:51;3.80;99.90
25342;DHT22;13298;48.792;9.154;2022-11-23T01:37:17;3.80;99.90
25342;DHT22;13298;48.792;9.154;2022-11-23T01:39:42;3.70;99.90
25342;DHT22;13298;48.792;9.154;2022-11-23T01:42:08;3.70;99.90
25342;DHT22;13298;48.792;9.154;2022-11-23T01:44:36;3.80;99.90
25342;DHT22;13298;48.792;9.154;2022-11-23T01:47:07;3.80;99.90
25342;DHT22;13298;48.792;9.154;2022-11-23T01:49:45;3.90;99.90
25342;DHT22;13298;48.792;9.154;2022-11-23T01:52:19;3.80;99.90
25342;DHT22;13298;48.792;9.154;2022-11-23T01:54:55;3.80;99.90
25342;DHT22;13298;48.792;9.154;2022-11-23T01:57:30;3.80;99.90
25342;DHT22;13298;48.792;9.154;2022-11-23T01:59:57;3.80;99.90
25342;DHT22;13298;48.792;9.154;2022-11-23T02:02:25;3.90;99.90
25342;DHT22;13298;48.792;9.154;2022-11-23T02:04:52;3.80;99.90
25342;DHT22;13298;48.792;9.154;2022-11-23T02:07:20;3.90;99.90
25342;DHT22;13298;48.792;9.154;2022-11-23T02:09:48;3.80;99.90
25342;DHT22;13298;48.792;9.154;2022-11-23T02:12:15;3.80;99.90
25342;DHT22;13298;48.792;9.154;2022-11-23T02:14:41;3.70;99.90
25342;DHT22;13298;48.792;9.154;2022-11-23T02:17:07;3.60;99.90
25342;DHT22;13298;48.792;9.154;2022-11-23T02:22:54;3.60;99.90
25342;DHT22;13298;48.792;9.154;2022-11-23T02:28:06;3.60;99.90
25342;DHT22;13298;48.792;9.154;2022-11-23T02:30:33;3.60;99.90
25342;DHT22;13298;48.792;9.154;2022-11-23T02:33:03;3.50;99.90
25342;DHT22;13298;48.792;9.154;2022-11-23T02:35:30;3.60;99.90
25342;DHT22;13298;48.792;9.154;2022-11-23T02:37:58;3.50;99.90
25342;DHT22;13298;48.792;9.154;2022-11-23T02:42:53;3.60;99.90
25342;DHT22;13298;48.792;9.154;2022-11-23T02:45:46;3.50;99.90
25342;DHT22;13298;48.792;9.154;2022-11-23T02:48:15;3.60;99.90
25342;DHT22;13298;48.792;9.154;2022-11-23T02:50:41;3.50;99.90
25342;DHT22;13298;48.792;9.154;2022-11-23T02:53:07;3.60;99.90
25342;DHT22;13298;48.792;9.154;2022-11-23T02:55:33;3.60;99.90
25342;DHT22;13298;48.792;9.154;2022-11-23T02:57:58;3.60;99.90
25342;DHT22;13298;48.792;9.154;2022-11-23T03:00:24;3.60;99.90
25342;DHT22;13298;48.792;9.154;2022-11-23T03:02:50;3.60;99.90
25342;DHT22;13298;48.792;9.154;2022-11-23T03:05:16;3.60;99.90
25342;DHT22;13298;48.792;9.154;2022-11-23T03:07:41;3.60;99.90
25342;DHT22;13298;48.792;9.154;2022-11-23T03:10:07;3.60;99.90
25342;DHT22;13298;48.792;9.154;2022-11-23T03:12:33;3.50;99.90
25342;DHT22;13298;48.792;9.154;2022-11-23T03:14:59;3.50;99.90
25342;DHT22;13298;48.792;9.154;2022-11-23T03:17:25;3.50;99.90
25342;DHT22;13298;48.792;9.154;2022-11-23T03:19:52;3.50;99.90
25342;DHT22;13298;48.792;9.154;2022-11-23T03:22:18;3.40;99.90
25342;DHT22;13298;48.792;9.154;2022-11-23T03:24:44;3.40;99.90
25342;DHT22;13298;48.792;9.154;2022-11-23T03:27:10;3.40;99.90
25342;DHT22;13298;48.792;9.154;2022-11-23T03:29:36;3.40;99.90
25342;DHT22;13298;48.792;9.154;2022-11-23T03:32:01;3.40;99.90
25342;DHT22;13298;48.792;9.154;2022-11-23T03:34:27;3.50;99.90
25342;DHT22;13298;48.792;9.154;2022-11-23T03:36:53;3.40;99.90
25342;DHT22;13298;48.792;9.154;2022-11-23T03:39:18;3.40;99.90
25342;DHT22;13298;48.792;9.154;2022-11-23T03:41:44;3.40;99.90
25342;DHT22;13298;48.792;9.154;2022-11-23T03:44:10;3.40;99.90
25342;DHT22;13298;48.792;9.154;2022-11-23T03:46:35;3.50;99.90
25342;DHT22;13298;48.792;9.154;2022-11-23T03:49:01;3.50;99.90
25342;DHT22;13298;48.792;9.154;2022-11-23T03:51:27;3.50;99.90
25342;DHT22;13298;48.792;9.154;2022-11-23T03:53:53;3.60;99.90
25342;DHT22;13298;48.792;9.154;2022-11-23T03:56:18;3.60;99.90
25342;DHT22;13298;48.792;9.154;2022-11-23T03:58:44;3.60;99.90
25342;DHT22;13298;48.792;9.154;2022-11-23T04:01:10;3.70;99.90
25342;DHT22;13298;48.792;9.154;2022-11-23T04:03:36;3.80;99.90
25342;DHT22;13298;48.792;9.154;2022-11-23T04:06:01;3.80;99.90
25342;DHT22;13298;48.792;9.154;2022-11-23T04:08:27;3.90;99.90
25342;DHT22;13298;48.792;9.154;2022-11-23T04:10:57;3.90;99.90
25342;DHT22;13298;48.792;9.154;2022-11-23T04:13:23;4.00;99.90
25342;DHT22;13298;48.792;9.154;2022-11-23T04:15:49;4.10;99.90
25342;DHT22;13298;48.792;9.154;2022-11-23T04:18:14;4.10;99.90
25342;DHT22;13298;48.792;9.154;2022-11-23T04:20:40;4.10;99.90
25342;DHT22;13298;48.792;9.154;2022-11-23T04:23:06;4.10;99.90
25342;DHT22;13298;48.792;9.154;2022-11-23T04:25:32;4.10;99.90
25342;DHT22;13298;48.792;9.154;2022-11-23T04:27:58;4.10;99.90
25342;DHT22;13298;48.792;9.154;2022-11-23T04:30:24;4.10;99.90
25342;DHT22;13298;48.792;9.154;2022-11-23T04:32:50;4.00;99.90
25342;DHT22;13298;48.792;9.154;2022-11-23T04:35:15;4.00;99.90
25342;DHT22;13298;48.792;9.154;2022-11-23T04:37:41;3.90;99.90
25342;DHT22;13298;48.792;9.154;2022-11-23T04:40:07;3.80;99.90
25342;DHT22;13298;48.792;9.154;2022-11-23T04:42:34;3.70;99.90
25342;DHT22;13298;48.792;9.154;2022-11-23T04:44:59;3.60;99.90
25342;DHT22;13298;48.792;9.154;2022-11-23T04:47:25;3.50;99.90
25342;DHT22;13298;48.792;9.154;2022-11-23T04:49:51;3.50;99.90
25342;DHT22;13298;48.792;9.154;2022-11-23T04:52:17;3.40;99.90
25342;DHT22;13298;48.792;9.154;2022-11-23T04:54:42;3.40;99.90
25342;DHT22;13298;48.792;9.154;2022-11-23T04:57:08;3.30;99.90
25342;DHT22;13298;48.792;9.154;2022-11-23T04:59:34;3.20;99.90
25342;DHT22;13298;48.792;9.154;2022-11-23T05:02:00;3.20;99.90
25342;DHT22;13298;48.792;9.154;2022-11-23T05:04:26;3.10;99.90
25342;DHT22;13298;48.792;9.154;2022-11-23T05:06:51;3.10;99.90
25342;DHT22;13298;48.792;9.154;2022-11-23T05:09:18;3.00;99.90
25342;DHT22;13298;48.792;9.154;2022-11-23T05:11:43;3.10;99.90
25342;DHT22;13298;48.792;9.154;2022-11-23T05:14:09;3.10;99.90
25342;DHT22;13298;48.792;9.154;2022-11-23T05:16:35;3.10;99.90
25342;DHT22;13298;48.792;9.154;2022-11-23T05:19:00;3.10;99.90
25342;DHT22;13298;48.792;9.154;2022-11-23T05:21:26;3.20;99.90
25342;DHT22;13298;48.792;9.154;2022-11-23T05:23:52;3.20;99.90
25342;DHT22;13298;48.792;9.154;2022-11-23T05:26:17;3.30;99.90
25342;DHT22;13298;48.792;9.154;2022-11-23T05:28:43;3.30;99.90
25342;DHT22;13298;48.792;9.154;2022-11-23T05:31:09;3.40;99.90
25342;DHT22;13298;48.792;9.154;2022-11-23T05:33:35;3.50;99.90
25342;DHT22;13298;48.792;9.154;2022-11-23T05:36:01;3.50;99.90
25342;DHT22;13298;48.792;9.154;2022-11-23T05:38:27;3.60;99.90
25342;DHT22;13298;48.792;9.154;2022-11-23T05:40:53;3.70;99.90
25342;DHT22;13298;48.792;9.154;2022-11-23T05:43:18;3.70;99.90
25342;DHT22;13298;48.792;9.154;2022-11-23T05:45:44;3.80;99.90
25342;DHT22;13298;48.792;9.154;2022-11-23T05:48:10;3.90;99.90
25342;DHT22;13298;48.792;9.154;2022-11-23T05:50:36;4.00;99.90
25342;DHT22;13298;48.792;9.154;2022-11-23T05:53:02;4.00;99.90
25342;DHT22;13298;48.792;9.154;2022-11-23T05:55:27;4.10;99.90
25342;DHT22;13298;48.792;9.154;2022-11-23T05:57:53;4.20;99.90
25342;DHT22;13298;48.792;9.154;2022-11-23T06:00:19;4.20;99.90
25342;DHT22;13298;48.792;9.154;2022-11-23T06:02:45;4.30;99.90
25342;DHT22;13298;48.792;9.154;2022-11-23T06:05:11;4.30;99.90
25342;DHT22;13298;48.792;9.154;2022-11-23T06:07:37;4.30;99.90
25342;DHT22;13298;48.792;9.154;2022-11-23T06:10:04;4.40;99.90
25342;DHT22;13298;48.792;9.154;2022-11-23T06:12:31;4.40;99.90
25342;DHT22;13298;48.792;9.154;2022-11-23T06:14:56;4.40;99.90
25342;DHT22;13298;48.792;9.154;2022-11-23T06:17:22;4.40;99.90
25342;DHT22;13298;48.792;9.154;2022-11-23T06:19:48;4.40;99.90
25342;DHT22;13298;48.792;9.154;2022-11-23T06:22:15;4.30;99.90
25342;DHT22;13298;48.792;9.154;2022-11-23T06:24:41;4.20;99.90
25342;DHT22;13298;48.792;9.154;2022-11-23T06:27:07;4.10;99.90
25342;DHT22;13298;48.792;9.154;2022-11-23T06:29:33;4.00;99.90
25342;DHT22;13298;48.792;9.154;2022-11-23T06:31:58;3.90;99.90
25342;DHT22;13298;48.792;9.154;2022-11-23T06:34:24;3.80;99.90
25342;DHT22;13298;48.792;9.154;2022-11-23T06:36:50;3.70;99.90
25342;DHT22;13298;48.792;9.154;2022-11-23T06:39:15;3.60;99.90
25342;DHT22;13298;48.792;9.154;2022-11-23T06:41:41;3.50;99.90
25342;DHT22;13298;48.792;9.154;2022-11-23T06:44:07;3.40;99.90
25342;DHT22;13298;48.792;9.154;2022-11-23T06:46:33;3.40;99.90
25342;DHT22;13298;48.792;9.154;2022-11-23T06:48:59;3.40;99.90
25342;DHT22;13298;48.792;9.154;2022-11-23T06:51:24;3.40;99.90
25342;DHT22;13298;48.792;9.154;2022-11-23T06:53:50;3.40;99.90
25342;DHT22;13298;48.792;9.154;2022-11-23T06:56:16;3.30;99.90
25342;DHT22;13298;48.792;9.154;2022-11-23T06:58:41;3.30;99.90
25342;DHT22;13298;48.792;9.154;2022-11-23T07:01:08;3.30;99.90
25342;DHT22;13298;48.792;9.154;2022-11-23T07:03:34;3.30;99.90
25342;DHT22;13298;48.792;9.154;2022-11-23T07:06:08;3.30;99.90
25342;DHT22;13298;48.792;9.154;2022-11-23T07:08:35;3.30;99.90
25342;DHT22;13298;48.792;9.154;2022-11-23T07:11:01;3.30;99.90
25342;DHT22;13298;48.792;9.154;2022-11-23T07:13:27;3.30;99.90
25342;DHT22;13298;48.792;9.154;2022-11-23T07:15:56;3.30;99.90
25342;DHT22;13298;48.792;9.154;2022-11-23T07:18:22;3.30;99.90
25342;DHT22;13298;48.792;9.154;2022-11-23T07:20:48;3.30;99.90
25342;DHT22;13298;48.792;9.154;2022-11-23T07:23:13;3.20;99.90
25342;DHT22;13298;48.792;9.154;2022-11-23T07:25:39;3.20;99.90
25342;DHT22;13298;48.792;9.154;2022-11-23T07:28:06;3.20;99.90
25342;DHT22;13298;48.792;9.154;2022-11-23T07:30:32;3.20;99.90
25342;DHT22;13298;48.792;9.154;2022-11-23T07:33:00;3.20;99.90
25342;DHT22;13298;48.792;9.154;2022-11-23T07:35:33;3.20;99.90
25342;DHT22;13298;48.792;9.154;2022-11-23T07:38:00;3.20;99.90
25342;DHT22;13298;48.792;9.154;2022-11-23T07:40:27;3.20;99.90
25342;DHT22;13298;48.792;9.154;2022-11-23T07:42:57;3.20;99.90
25342;DHT22;13298;48.792;9.154;2022-11-23T07:45:24;3.30;99.90
25342;DHT22;13298;48.792;9.154;2022-11-23T07:47:59;3.30;99.90
25342;DHT22;13298;48.792;9.154;2022-11-23T07:50:29;3.40;99.90
25342;DHT22;13298;48.792;9.154;2022-11-23T07:52:55;3.40;99.90
25342;DHT22;13298;48.792;9.154;2022-11-23T07:55:21;3.50;99.90
25342;DHT22;13298;48.792;9.154;2022-11-23T07:57:51;3.60;99.90
25342;DHT22;13298;48.792;9.154;2022-11-23T08:00:18;3.60;99.90
25342;DHT22;13298;48.792;9.154;2022-11-23T08:02:44;3.70;99.90
25342;DHT22;13298;48.792;9.154;2022-11-23T08:05:10;3.80;99.90
25342;DHT22;13298;48.792;9.154;2022-11-23T08:07:36;3.90;99.90
25342;DHT22;13298;48.792;9.154;2022-11-23T08:10:02;4.00;99.90
25342;DHT22;13298;48.792;9.154;2022-11-23T08:12:28;4.20;99.90
25342;DHT22;13298;48.792;9.154;2022-11-23T08:14:54;4.30;99.90
25342;DHT22;13298;48.792;9.154;2022-11-23T08:17:19;4.40;99.90
25342;DHT22;13298;48.792;9.154;2022-11-23T08:19:45;4.50;99.90
25342;DHT22;13298;48.792;9.154;2022-11-23T08:22:11;4.60;99.90
25342;DHT22;13298;48.792;9.154;2022-11-23T08:24:36;4.70;99.90
25342;DHT22;13298;48.792;9.154;2022-11-23T08:27:02;4.80;99.90
25342;DHT22;13298;48.792;9.154;2022-11-23T08:29:28;4.80;99.90
25342;DHT22;13298;48.792;9.154;2022-11-23T08:31:55;4.90;99.90
25342;DHT22;13298;48.792;9.154;2022-11-23T08:34:20;5.00;99.90
25342;DHT22;13298;48.792;9.154;2022-11-23T08:36:46;5.00;99.90
25342;DHT22;13298;48.792;9.154;2022-11-23T08:39:14;5.00;99.90
25342;DHT22;13298;48.792;9.154;2022-11-23T08:41:41;5.00;99.90
25342;DHT22;13298;48.792;9.154;2022-11-23T08:44:07;5.00;99.90
25342;DHT22;13298;48.792;9.154;2022-11-23T08:46:35;5.00;99.90
25342;DHT22;13298;48.792;9.154;2022-11-23T08:49:02;5.10;99.90
25342;DHT22;13298;48.792;9.154;2022-11-23T08:51:28;5.10;99.90
25342;DHT22;13298;48.792;9.154;2022-11-23T08:53:54;5.10;99.90
25342;DHT22;13298;48.792;9.154;2022-11-23T08:56:19;5.10;99.90
25342;DHT22;13298;48.792;9.154;2022-11-23T08:58:45;5.20;99.90
25342;DHT22;13298;48.792;9.154;2022-11-23T09:01:13;5.30;99.90
25342;DHT22;13298;48.792;9.154;2022-11-23T09:03:40;5.40;99.90
25342;DHT22;13298;48.792;9.154;2022-11-23T09:06:07;5.40;99.90
25342;DHT22;13298;48.792;9.154;2022-11-23T09:08:33;5.50;99.90
25342;DHT22;13298;48.792;9.154;2022-11-23T09:11:01;5.50;99.90
25342;DHT22;13298;48.792;9.154;2022-11-23T09:13:27;5.50;99.90
25342;DHT22;13298;48.792;9.154;2022-11-23T09:16:00;5.60;99.90
25342;DHT22;13298;48.792;9.154;2022-11-23T09:18:27;5.70;99.90
25342;DHT22;13298;48.792;9.154;2022-11-23T09:20:55;5.70;99.90
25342;DHT22;13298;48.792;9.154;2022-11-23T09:23:21;5.70;99.90
25342;DHT22;13298;48.792;9.154;2022-11-23T09:25:47;5.80;99.90
25342;DHT22;13298;48.792;9.154;2022-11-23T09:28:15;5.80;99.90
25342;DHT22;13298;48.792;9.154;2022-11-23T09:30:44;5.80;99.90
25342;DHT22;13298;48.792;9.154;2022-11-23T09:33:11;5.90;99.90
25342;DHT22;13298;48.792;9.154;2022-11-23T09:35:37;5.90;99.90
25342;DHT22;13298;48.792;9.154;2022-11-23T09:38:02;6.00;99.90
25342;DHT22;13298;48.792;9.154;2022-11-23T09:40:39;6.10;99.90
25342;DHT22;13298;48.792;9.154;2022-11-23T09:43:16;6.10;99.90
25342;DHT22;13298;48.792;9.154;2022-11-23T09:46:13;6.10;99.90
25342;DHT22;13298;48.792;9.154;2022-11-23T09:51:26;6.30;99.90
25342;DHT22;13298;48.792;9.154;2022-11-23T09:53:55;6.40;99.90
25342;DHT22;13298;48.792;9.154;2022-11-23T09:56:26;6.40;99.90
25342;DHT22;13298;48.792;9.154;2022-11-23T09:58:57;6.40;99.90
25342;DHT22;13298;48.792;9.154;2022-11-23T10:01:25;6.50;99.90
25342;DHT22;13298;48.792;9.154;2022-11-23T10:03:57;6.50;99.90
25342;DHT22;13298;48.792;9.154;2022-11-23T10:06:29;6.50;99.90
25342;DHT22;13298;48.792;9.154;2022-11-23T10:09:17;6.60;99.90
25342;DHT22;13298;48.792;9.154;2022-11-23T10:15:00;6.70;99.90
25342;DHT22;13298;48.792;9.154;2022-11-23T10:17:58;6.70;99.90
25342;DHT22;13298;48.792;9.154;2022-11-23T10:21:03;6.80;99.90
25342;DHT22;13298;48.792;9.154;2022-11-23T10:23:55;6.80;99.90
25342;DHT22;13298;48.792;9.154;2022-11-23T10:26:41;6.80;99.90
25342;DHT22;13298;48.792;9.154;2022-11-23T10:32:05;6.90;99.90
25342;DHT22;13298;48.792;9.154;2022-11-23T10:37:28;7.00;99.90
25342;DHT22;13298;48.792;9.154;2022-11-23T10:39:53;7.00;99.90
25342;DHT22;13298;48.792;9.154;2022-11-23T10:42:29;7.00;99.90
25342;DHT22;13298;48.792;9.154;2022-11-23T10:44:58;7.10;99.90
25342;DHT22;13298;48.792;9.154;2022-11-23T10:47:34;7.10;99.90
25342;DHT22;13298;48.792;9.154;2022-11-23T10:53:19;7.20;99.90
25342;DHT22;13298;48.792;9.154;2022-11-23T10:55:54;7.20;99.90
25342;DHT22;13298;48.792;9.154;2022-11-23T10:58:29;7.20;99.90
25342;DHT22;13298;48.792;9.154;2022-11-23T11:01:04;7.30;99.90
25342;DHT22;13298;48.792;9.154;2022-11-23T11:03:51;7.30;99.90
25342;DHT22;13298;48.792;9.154;2022-11-23T11:06:25;7.30;99.90
25342;DHT22;13298;48.792;9.154;2022-11-23T11:08:59;7.30;99.90
25342;DHT22;13298;48.792;9.154;2022-11-23T11:11:38;7.30;99.90
25342;DHT22;13298;48.792;9.154;2022-11-23T11:14:13;7.30;99.90
25342;DHT22;13298;48.792;9.154;2022-11-23T11:16:54;7.30;99.90
25342;DHT22;13298;48.792;9.154;2022-11-23T11:19:25;7.30;99.90
25342;DHT22;13298;48.792;9.154;2022-11-23T11:21:51;7.40;99.90
25342;DHT22;13298;48.792;9.154;2022-11-23T11:24:37;7.40;99.90
25342;DHT22;13298;48.792;9.154;2022-11-23T11:27:16;7.40;99.90
25342;DHT22;13298;48.792;9.154;2022-11-23T11:35:36;7.50;99.90
25342;DHT22;13298;48.792;9.154;2022-11-23T11:38:23;7.50;99.90
25342;DHT22;13298;48.792;9.154;2022-11-23T11:40:55;7.50;99.90
25342;DHT22;13298;48.792;9.154;2022-11-23T11:43:44;7.60;99.90
25342;DHT22;13298;48.792;9.154;2022-11-23T11:53:56;7.60;99.90
25342;DHT22;13298;48.792;9.154;2022-11-23T11:56:33;7.70;99.90
25342;DHT22;13298;48.792;9.154;2022-11-23T11:59:09;7.70;99.90
25342;DHT22;13298;48.792;9.154;2022-11-23T12:04:42;7.60;99.90
25342;DHT22;13298;48.792;9.154;2022-11-23T12:08:14;7.60;99.90
25342;DHT22;13298;48.792;9.154;2022-11-23T12:10:28;7.60;99.90
25342;DHT22;13298;48.792;9.154;2022-11-23T12:13:03;7.70;99.90
25342;DHT22;13298;48.792;9.154;2022-11-23T12:15:37;7.60;99.90
25342;DHT22;13298;48.792;9.154;2022-11-23T12:18:27;7.70;99.90
25342;DHT22;13298;48.792;9.154;2022-11-23T12:21:04;7.70;99.90
25342;DHT22;13298;48.792;9.154;2022-11-23T12:24:06;7.70;99.90
25342;DHT22;13298;48.792;9.154;2022-11-23T12:26:44;7.70;99.90
25342;DHT22;13298;48.792;9.154;2022-11-23T12:38:52;7.80;99.90
25342;DHT22;13298;48.792;9.154;2022-11-23T12:49:40;7.70;99.90
25342;DHT22;13298;48.792;9.154;2022-11-23T12:55:17;7.70;99.90
25342;DHT22;13298;48.792;9.154;2022-11-23T12:57:59;7.70;99.90
25342;DHT22;13298;48.792;9.154;2022-11-23T13:00:41;7.80;99.90
25342;DHT22;13298;48.792;9.154;2022-11-23T13:03:31;7.80;99.90
25342;DHT22;13298;48.792;9.154;2022-11-23T13:06:48;7.80;99.90
25342;DHT22;13298;48.792;9.154;2022-11-23T13:21:44;7.80;99.90
25342;DHT22;13298;48.792;9.154;2022-11-23T13:35:03;7.80;99.90
25342;DHT22;13298;48.792;9.154;2022-11-23T13:42:53;7.90;99.90
25342;DHT22;13298;48.792;9.154;2022-11-23T13:45:27;7.80;99.90
25342;DHT22;13298;48.792;9.154;2022-11-23T13:50:39;7.80;99.90
25342;DHT22;13298;48.792;9.154;2022-11-23T13:53:29;7.70;99.90
25342;DHT22;13298;48.792;9.154;2022-11-23T13:56:27;7.80;99.90
25342;DHT22;13298;48.792;9.154;2022-11-23T14:04:35;7.70;99.90
25342;DHT22;13298;48.792;9.154;2022-11-23T14:09:59;7.60;99.90
25342;DHT22;13298;48.792;9.154;2022-11-23T14:15:21;7.60;99.90
25342;DHT22;13298;48.792;9.154;2022-11-23T14:20:51;7.60;99.90
25342;DHT22;13298;48.792;9.154;2022-11-23T14:40:46;7.40;99.90
25342;DHT22;13298;48.792;9.154;2022-11-23T14:43:17;7.30;99.90
25342;DHT22;13298;48.792;9.154;2022-11-23T14:45:45;7.20;99.90
25342;DHT22;13298;48.792;9.154;2022-11-23T14:48:28;7.20;99.90
25342;DHT22;13298;48.792;9.154;2022-11-23T14:51:03;7.10;99.90
25342;DHT22;13298;48.792;9.154;2022-11-23T14:53:39;7.10;99.90
25342;DHT22;13298;48.792;9.154;2022-11-23T14:58:48;6.90;99.90
25342;DHT22;13298;48.792;9.154;2022-11-23T15:01:21;6.90;99.90
25342;DHT22;13298;48.792;9.154;2022-11-23T15:04:06;6.80;99.90
25342;DHT22;13298;48.792;9.154;2022-11-23T15:06:46;6.80;99.90
25342;DHT22;13298;48.792;9.154;2022-11-23T15:09:32;6.70;99.90
25342;DHT22;13298;48.792;9.154;2022-11-23T15:14:52;6.50;99.90
25342;DHT22;13298;48.792;9.154;2022-11-23T15:17:20;6.50;99.90
25342;DHT22;13298;48.792;9.154;2022-11-23T15:19:59;6.50;99.90
25342;DHT22;13298;48.792;9.154;2022-11-23T15:22:27;6.40;99.90
25342;DHT22;13298;48.792;9.154;2022-11-23T15:24:53;6.30;99.90
25342;DHT22;13298;48.792;9.154;2022-11-23T15:27:24;6.20;99.90
25342;DHT22;13298;48.792;9.154;2022-11-23T15:29:57;6.20;99.90
25342;DHT22;13298;48.792;9.154;2022-11-23T15:32:29;6.10;99.90
25342;DHT22;13298;48.792;9.154;2022-11-23T15:34:57;6.10;99.90
25342;DHT22;13298;48.792;9.154;2022-11-23T15:37:25;6.10;99.90
25342;DHT22;13298;48.792;9.154;2022-11-23T15:39:53;6.10;99.90
25342;DHT22;13298;48.792;9.154;2022-11-23T15:42:22;6.10;99.90
25342;DHT22;13298;48.792;9.154;2022-11-23T15:44:49;6.00;99.90
25342;DHT22;13298;48.792;9.154;2022-11-23T15:47:21;6.00;99.90
25342;DHT22;13298;48.792;9.154;2022-11-23T15:49:57;5.90;99.90
25342;DHT22;13298;48.792;9.154;2022-11-23T15:52:27;5.90;99.90
25342;DHT22;13298;48.792;9.154;2022-11-23T15:54:55;6.00;99.90
25342;DHT22;13298;48.792;9.154;2022-11-23T15:57:23;6.00;99.90
25342;DHT22;13298;48.792;9.154;2022-11-23T16:00:01;6.00;99.90
25342;DHT22;13298;48.792;9.154;2022-11-23T16:02:29;6.10;99.90
25342;DHT22;13298;48.792;9.154;2022-11-23T16:05:14;6.10;99.90
25342;DHT22;13298;48.792;9.154;2022-11-23T16:07:53;6.30;99.90
25342;DHT22;13298;48.792;9.154;2022-11-23T16:10:23;6.30;99.90
25342;DHT22;13298;48.792;9.154;2022-11-23T16:12:57;6.40;99.90
25342;DHT22;13298;48.792;9.154;2022-11-23T16:18:24;6.60;99.90
25342;DHT22;13298;48.792;9.154;2022-11-23T16:20:56;6.70;99.90
25342;DHT22;13298;48.792;9.154;2022-11-23T16:23:26;6.70;99.90
25342;DHT22;13298;48.792;9.154;2022-11-23T16:26:05;6.80;99.90
25342;DHT22;13298;48.792;9.154;2022-11-23T16:28:32;6.90;99.90
25342;DHT22;13298;48.792;9.154;2022-11-23T16:31:00;6.90;99.90
25342;DHT22;13298;48.792;9.154;2022-11-23T16:33:26;7.00;99.90
25342;DHT22;13298;48.792;9.154;2022-11-23T16:35:52;7.00;99.90
25342;DHT22;13298;48.792;9.154;2022-11-23T16:38:18;7.10;99.90
25342;DHT22;13298;48.792;9.154;2022-11-23T16:40:45;7.20;99.90
25342;DHT22;13298;48.792;9.154;2022-11-23T16:43:13;7.20;99.90
25342;DHT22;13298;48.792;9.154;2022-11-23T16:45:43;7.30;99.90
25342;DHT22;13298;48.792;9.154;2022-11-23T16:48:35;7.30;99.90
25342;DHT22;13298;48.792;9.154;2022-11-23T16:51:05;7.30;99.90
25342;DHT22;13298;48.792;9.154;2022-11-23T16:53:31;7.40;99.90
25342;DHT22;13298;48.792;9.154;2022-11-23T16:56:00;7.40;99.90
25342;DHT22;13298;48.792;9.154;2022-11-23T16:58:31;7.40;99.90
25342;DHT22;13298;48.792;9.154;2022-11-23T17:01:02;7.40;99.90
25342;DHT22;13298;48.792;9.154;2022-11-23T17:03:28;7.40;99.90
25342;DHT22;13298;48.792;9.154;2022-11-23T17:05:54;7.30;99.90
25342;DHT22;13298;48.792;9.154;2022-11-23T17:08:20;7.30;99.90
25342;DHT22;13298;48.792;9.154;2022-11-23T17:10:46;7.20;99.90
25342;DHT22;13298;48.792;9.154;2022-11-23T17:13:25;7.10;99.90
25342;DHT22;13298;48.792;9.154;2022-11-23T17:15:51;7.10;99.90
25342;DHT22;13298;48.792;9.154;2022-11-23T17:18:17;7.00;99.90
25342;DHT22;13298;48.792;9.154;2022-11-23T17:20:43;7.00;99.90
25342;DHT22;13298;48.792;9.154;2022-11-23T17:23:10;7.00;99.90
25342;DHT22;13298;48.792;9.154;2022-11-23T17:25:36;7.00;99.90
25342;DHT22;13298;48.792;9.154;2022-11-23T17:28:04;6.90;99.90
25342;DHT22;13298;48.792;9.154;2022-11-23T17:30:31;6.90;99.90
25342;DHT22;13298;48.792;9.154;2022-11-23T17:32:59;6.80;99.90
25342;DHT22;13298;48.792;9.154;2022-11-23T17:35:25;6.80;99.90
25342;DHT22;13298;48.792;9.154;2022-11-23T17:37:51;6.70;99.90
25342;DHT22;13298;48.792;9.154;2022-11-23T17:40:19;6.70;99.90
25342;DHT22;13298;48.792;9.154;2022-11-23T17:42:46;6.70;99.90
25342;DHT22;13298;48.792;9.154;2022-11-23T17:45:12;6.70;99.90
25342;DHT22;13298;48.792;9.154;2022-11-23T17:47:38;6.60;99.90
25342;DHT22;13298;48.792;9.154;2022-11-23T17:50:08;6.60;99.90
25342;DHT22;13298;48.792;9.154;2022-11-23T17:52:36;6.50;99.90
25342;DHT22;13298;48.792;9.154;2022-11-23T17:55:05;6.50;99.90
25342;DHT22;13298;48.792;9.154;2022-11-23T17:57:31;6.50;99.90
25342;DHT22;13298;48.792;9.154;2022-11-23T17:59:56;6.40;99.90
25342;DHT22;13298;48.792;9.154;2022-11-23T18:02:22;6.40;99.90
25342;DHT22;13298;48.792;9.154;2022-11-23T18:04:48;6.40;99.90
25342;DHT22;13298;48.792;9.154;2022-11-23T18:07:14;6.30;99.90
25342;DHT22;13298;48.792;9.154;2022-11-23T18:09:41;6.30;99.90
25342;DHT22;13298;48.792;9.154;2022-11-23T18:12:08;6.30;99.90